createdAt,value
2018-03-27T00:02:21.833Z,4.29
2018-03-27T00:04:49.430Z,4.33
2018-03-27T00:07:17.029Z,4.38
2018-03-27T00:09:44.841Z,4.33
2018-03-27T00:12:12.436Z,4.35
2018-03-27T00:14:40.040Z,4.35
2018-03-27T00:17:07.895Z,4.35
2018-03-27T00:19:35.494Z,4.39
2018-03-27T00:22:03.102Z,4.36
2018-03-27T00:24:46.486Z,4.39
2018-03-27T00:27:13.820Z,4.38
2018-03-27T00:29:53.186Z,4.26
2018-03-27T00:32:32.738Z,4.18
2018-03-27T00:35:12.117Z,4.14
2018-03-27T00:37:51.761Z,4.13
2018-03-27T00:40:31.317Z,4.11
2018-03-27T00:43:03.050Z,4.07
2018-03-27T00:45:30.658Z,4.01
2018-03-27T00:47:58.486Z,3.95
2018-03-27T00:50:26.089Z,3.87
2018-03-27T00:52:53.674Z,3.82
2018-03-27T00:55:21.441Z,3.79
2018-03-27T00:57:49.025Z,3.81
2018-03-27T01:00:16.739Z,3.74
2018-03-27T01:02:44.494Z,3.71
2018-03-27T01:05:12.095Z,3.65
2018-03-27T01:07:39.694Z,3.65
2018-03-27T01:10:07.448Z,3.71
2018-03-27T01:12:35.267Z,3.74
2018-03-27T01:15:03.085Z,3.73
2018-03-27T01:17:30.903Z,3.77
2018-03-27T01:19:58.502Z,3.84
2018-03-27T01:22:26.132Z,3.85
2018-03-27T01:24:53.750Z,3.89
2018-03-27T01:27:21.578Z,3.87
2018-03-27T01:29:49.395Z,3.82
2018-03-27T01:32:17.212Z,3.81
2018-03-27T01:34:45.032Z,3.77
2018-03-27T01:37:12.626Z,3.74
2018-03-27T01:39:40.220Z,3.72
2018-03-27T01:42:07.820Z,3.69
2018-03-27T01:44:35.406Z,3.74
2018-03-27T01:47:03.001Z,3.75
2018-03-27T01:49:30.739Z,3.80
2018-03-27T01:51:58.394Z,3.81
2018-03-27T01:54:25.978Z,3.85
2018-03-27T01:56:53.566Z,3.86
2018-03-27T01:59:21.416Z,3.86
2018-03-27T02:01:49.019Z,3.91
2018-03-27T02:04:16.850Z,3.97
2018-03-27T02:06:44.434Z,3.95
2018-03-27T02:09:12.219Z,4.05
2018-03-27T02:11:45.485Z,4.11
2018-03-27T02:14:18.774Z,4.15
2018-03-27T02:16:51.765Z,4.17
2018-03-27T02:19:25.140Z,4.19
2018-03-27T02:21:52.322Z,4.24
2018-03-27T02:24:21.954Z,4.27
2018-03-27T02:26:49.707Z,4.25
2018-03-27T02:29:17.510Z,4.27
2018-03-27T02:31:45.110Z,4.30
2018-03-27T02:34:12.698Z,4.30
2018-03-27T02:36:40.308Z,4.29
2018-03-27T02:39:07.903Z,4.27
2018-03-27T02:41:35.700Z,4.26
2018-03-27T02:44:03.319Z,4.29
2018-03-27T02:46:30.937Z,4.33
2018-03-27T02:48:58.534Z,4.32
2018-03-27T02:51:26.372Z,4.34
2018-03-27T02:53:54.018Z,4.39
2018-03-27T02:56:21.775Z,4.38
2018-03-27T02:58:49.727Z,4.36
2018-03-27T03:01:17.358Z,4.28
2018-03-27T03:03:45.010Z,4.21
2018-03-27T03:06:12.609Z,4.10
2018-03-27T03:08:40.198Z,4.10
2018-03-27T03:11:08.017Z,4.14
2018-03-27T03:13:35.606Z,4.12
2018-03-27T03:16:03.266Z,4.14
2018-03-27T03:18:30.850Z,4.15
2018-03-27T03:20:58.444Z,4.13
2018-03-27T03:23:26.124Z,4.26
2018-03-27T03:25:53.924Z,4.26
2018-03-27T03:28:21.524Z,4.25
2018-03-27T03:30:49.118Z,4.30
2018-03-27T03:33:16.979Z,4.34
2018-03-27T03:35:44.797Z,4.35
2018-03-27T03:38:12.393Z,4.37
2018-03-27T03:40:39.985Z,4.34
2018-03-27T03:43:07.751Z,4.38
2018-03-27T03:45:35.346Z,4.38
2018-03-27T03:48:02.931Z,4.37
2018-03-27T03:50:30.782Z,4.31
2018-03-27T03:52:58.599Z,4.37
2018-03-27T03:55:26.182Z,4.43
2018-03-27T03:57:53.774Z,4.43
2018-03-27T04:00:21.377Z,4.46
2018-03-27T04:02:48.970Z,4.47
2018-03-27T04:05:16.597Z,4.45
2018-03-27T04:07:44.237Z,4.40
2018-03-27T04:10:12.012Z,4.37
2018-03-27T04:12:39.606Z,4.38
2018-03-27T04:15:07.238Z,4.38
2018-03-27T04:17:34.819Z,4.41
2018-03-27T04:20:02.418Z,4.49
2018-03-27T04:22:30.244Z,4.54
2018-03-27T04:24:57.899Z,4.49
2018-03-27T04:27:25.482Z,4.48
2018-03-27T04:29:53.076Z,4.46
2018-03-27T04:32:20.685Z,4.45
2018-03-27T04:34:48.280Z,4.44
2018-03-27T04:37:15.887Z,4.51
2018-03-27T04:39:43.632Z,4.57
2018-03-27T04:42:11.272Z,4.60
2018-03-27T04:44:38.867Z,4.61
2018-03-27T04:47:06.617Z,4.59
2018-03-27T04:49:34.436Z,4.69
2018-03-27T04:52:02.018Z,4.72
2018-03-27T04:54:29.616Z,4.73
2018-03-27T04:56:57.391Z,4.76
2018-03-27T04:59:25.046Z,4.82
2018-03-27T05:01:52.804Z,4.86
2018-03-27T05:04:20.442Z,4.92
2018-03-27T05:06:48.038Z,4.94
2018-03-27T05:09:15.619Z,4.97
2018-03-27T05:11:43.210Z,5.03
2018-03-27T05:14:10.793Z,5.09
2018-03-27T05:16:38.633Z,5.11
2018-03-27T05:19:06.219Z,5.10
2018-03-27T05:21:33.856Z,5.09
2018-03-27T05:24:01.688Z,5.15
2018-03-27T05:26:29.493Z,5.23
2018-03-27T05:28:57.089Z,5.33
2018-03-27T05:31:24.706Z,5.35
2018-03-27T05:33:52.362Z,5.28
2018-03-27T05:36:19.946Z,5.36
2018-03-27T05:38:47.696Z,5.43
2018-03-27T05:41:15.518Z,5.40
2018-03-27T05:43:43.334Z,5.50
2018-03-27T05:46:11.141Z,5.60
2018-03-27T05:48:38.969Z,5.73
2018-03-27T05:51:06.619Z,5.82
2018-03-27T05:53:34.218Z,5.85
2018-03-27T05:56:02.041Z,5.81
2018-03-27T05:58:29.643Z,5.76
2018-03-27T06:00:57.462Z,5.71
2018-03-27T06:03:25.061Z,5.79
2018-03-27T06:05:52.942Z,5.82
2018-03-27T06:08:20.594Z,5.89
2018-03-27T06:10:48.409Z,5.93
2018-03-27T06:13:16.224Z,6.06
2018-03-27T06:15:43.879Z,6.12
2018-03-27T06:18:11.470Z,6.13
2018-03-27T06:20:39.102Z,6.15
2018-03-27T06:23:06.690Z,6.19
2018-03-27T06:25:34.351Z,6.24
2018-03-27T06:28:02.160Z,6.33
2018-03-27T06:30:29.800Z,6.43
2018-03-27T06:33:00.707Z,6.52
2018-03-27T06:35:28.965Z,6.60
2018-03-27T06:37:56.558Z,6.65
2018-03-27T06:40:24.815Z,6.69
2018-03-27T06:42:53.323Z,6.76
2018-03-27T06:45:20.914Z,6.85
2018-03-27T06:47:48.731Z,6.88
2018-03-27T06:50:16.541Z,6.74
2018-03-27T06:52:44.136Z,6.71
2018-03-27T06:55:11.731Z,6.69
2018-03-27T06:57:39.322Z,6.70
2018-03-27T07:00:07.008Z,6.71
2018-03-27T07:02:34.750Z,6.71
2018-03-27T07:05:02.342Z,6.82
2018-03-27T07:07:29.935Z,7.07
2018-03-27T07:09:57.684Z,7.35
2018-03-27T07:12:25.512Z,7.60
2018-03-27T07:14:54.484Z,7.81
2018-03-27T07:17:22.270Z,7.84
2018-03-27T07:19:50.002Z,7.71
2018-03-27T07:22:17.669Z,7.58
2018-03-27T07:24:45.501Z,7.39
2018-03-27T07:27:13.081Z,7.31
2018-03-27T07:29:40.726Z,7.15
2018-03-27T07:32:08.302Z,7.02
2018-03-27T07:34:36.171Z,6.95
2018-03-27T07:37:03.832Z,6.95
2018-03-27T07:39:31.414Z,6.91
2018-03-27T07:41:59.005Z,6.92
2018-03-27T07:44:26.585Z,6.94
2018-03-27T07:46:54.462Z,6.99
2018-03-27T07:49:22.158Z,7.00
2018-03-27T07:51:49.746Z,7.08
2018-03-27T07:54:17.519Z,7.13
2018-03-27T07:56:45.107Z,7.13
2018-03-27T07:59:12.952Z,7.19
2018-03-27T08:01:40.561Z,7.22
2018-03-27T08:04:08.210Z,7.22
2018-03-27T08:06:35.804Z,7.19
2018-03-27T08:09:03.723Z,7.19
2018-03-27T08:11:31.327Z,7.22
2018-03-27T08:13:58.941Z,7.27
2018-03-27T08:16:26.542Z,7.41
2018-03-27T08:18:54.140Z,7.62
2018-03-27T08:21:22.013Z,7.71
2018-03-27T08:23:49.831Z,7.87
2018-03-27T08:26:17.414Z,7.87
2018-03-27T08:28:45.005Z,7.81
2018-03-27T08:31:12.785Z,7.71
2018-03-27T08:33:40.604Z,7.54
2018-03-27T08:36:08.213Z,7.38
2018-03-27T08:38:35.842Z,7.30
2018-03-27T08:41:03.490Z,7.19
2018-03-27T08:43:31.119Z,7.07
2018-03-27T08:45:58.785Z,6.99
2018-03-27T08:48:26.612Z,6.98
2018-03-27T08:50:54.430Z,6.99
2018-03-27T08:53:22.250Z,7.05
2018-03-27T08:55:50.027Z,7.17
2018-03-27T08:58:17.627Z,7.22
2018-03-27T09:00:45.215Z,7.39
2018-03-27T09:03:13.003Z,7.34
2018-03-27T09:05:40.840Z,7.28
2018-03-27T09:08:08.450Z,7.23
2018-03-27T09:10:36.255Z,7.20
2018-03-27T09:13:04.096Z,7.25
2018-03-27T09:15:31.718Z,7.36
2018-03-27T09:17:59.306Z,7.52
2018-03-27T09:20:27.026Z,7.63
2018-03-27T09:22:54.866Z,7.77
2018-03-27T09:25:22.686Z,7.97
2018-03-27T09:27:50.302Z,8.02
2018-03-27T09:30:18.122Z,8.18
2018-03-27T09:32:45.723Z,8.32
2018-03-27T09:35:13.566Z,8.35
2018-03-27T09:37:41.163Z,8.41
2018-03-27T09:40:08.758Z,8.38
2018-03-27T09:42:36.613Z,8.40
2018-03-27T09:45:04.230Z,8.42
2018-03-27T09:47:31.964Z,8.35
2018-03-27T09:49:59.767Z,8.30
2018-03-27T09:52:27.358Z,8.25
2018-03-27T09:54:55.005Z,8.21
2018-03-27T09:57:22.813Z,8.12
2018-03-27T09:59:50.641Z,8.14
2018-03-27T10:02:18.239Z,8.12
2018-03-27T10:04:45.817Z,8.07
2018-03-27T10:07:13.455Z,8.09
2018-03-27T10:09:41.212Z,8.18
2018-03-27T10:12:08.797Z,8.23
2018-03-27T10:14:36.648Z,8.24
2018-03-27T10:17:04.233Z,8.18
2018-03-27T10:19:31.975Z,8.08
2018-03-27T10:21:59.582Z,7.92
2018-03-27T10:24:27.174Z,7.87
2018-03-27T10:26:54.801Z,7.83
2018-03-27T10:29:22.378Z,7.74
2018-03-27T10:31:49.974Z,7.70
2018-03-27T10:34:17.658Z,7.71
2018-03-27T10:36:45.299Z,7.64
2018-03-27T10:39:13.238Z,7.54
2018-03-27T10:41:41.006Z,7.54
2018-03-27T10:44:08.609Z,7.50
2018-03-27T10:46:36.386Z,7.44
2018-03-27T10:49:03.999Z,7.36
2018-03-27T10:51:31.612Z,7.36
2018-03-27T10:53:59.261Z,7.19
2018-03-27T10:56:27.055Z,7.19
2018-03-27T10:58:54.650Z,7.20
2018-03-27T11:01:22.380Z,7.14
2018-03-27T11:03:49.960Z,7.05
2018-03-27T11:06:17.558Z,7.18
2018-03-27T11:08:45.316Z,7.30
2018-03-27T11:11:13.162Z,7.49
2018-03-27T11:13:40.981Z,7.66
2018-03-27T11:16:08.614Z,7.76
2018-03-27T11:18:36.198Z,7.99
2018-03-27T11:21:04.036Z,7.93
2018-03-27T11:23:31.652Z,8.05
2018-03-27T11:25:59.256Z,8.20
2018-03-27T11:28:26.856Z,8.45
2018-03-27T11:30:54.464Z,8.66
2018-03-27T11:33:22.225Z,8.88
2018-03-27T11:35:49.960Z,9.05
2018-03-27T11:38:17.607Z,9.07
2018-03-27T11:40:45.188Z,9.28
2018-03-27T11:43:12.998Z,9.34
2018-03-27T11:45:40.815Z,9.17
2018-03-27T11:48:08.410Z,9.10
2018-03-27T11:50:36.006Z,8.91
2018-03-27T11:53:03.654Z,8.91
2018-03-27T11:55:31.497Z,8.77
2018-03-27T11:57:59.406Z,8.76
2018-03-27T12:00:27.226Z,8.64
2018-03-27T12:02:54.833Z,8.53
2018-03-27T12:05:22.415Z,8.37
2018-03-27T12:07:50.178Z,8.34
2018-03-27T12:10:17.998Z,8.30
2018-03-27T12:12:45.815Z,8.34
2018-03-27T12:15:13.475Z,8.52
2018-03-27T12:17:41.265Z,8.62
2018-03-27T12:20:08.862Z,8.67
2018-03-27T12:22:36.689Z,8.70
2018-03-27T12:25:04.351Z,8.68
2018-03-27T12:27:31.954Z,8.60
2018-03-27T12:29:59.550Z,8.59
2018-03-27T12:32:27.362Z,8.62
2018-03-27T12:34:54.998Z,8.49
2018-03-27T12:37:22.558Z,8.38
2018-03-27T12:39:50.391Z,8.29
2018-03-27T12:42:17.956Z,8.32
2018-03-27T12:44:45.751Z,8.35
2018-03-27T12:47:13.565Z,8.35
2018-03-27T12:49:41.256Z,8.35
2018-03-27T12:52:08.977Z,8.32
2018-03-27T12:54:36.689Z,8.28
2018-03-27T12:57:04.295Z,8.23
2018-03-27T12:59:31.947Z,8.21
2018-03-27T13:01:59.505Z,8.20
2018-03-27T13:04:27.070Z,8.17
2018-03-27T13:06:54.682Z,8.16
2018-03-27T13:09:22.430Z,8.23
2018-03-27T13:11:50.324Z,8.27
2018-03-27T13:14:17.939Z,8.21
2018-03-27T13:16:45.622Z,8.24
2018-03-27T13:19:13.215Z,8.36
2018-03-27T13:21:41.022Z,8.46
2018-03-27T13:24:08.614Z,8.49
2018-03-27T13:26:36.275Z,8.44
2018-03-27T13:29:03.933Z,8.37
2018-03-27T13:31:31.651Z,8.37
2018-03-27T13:33:59.412Z,8.28
2018-03-27T13:36:27.133Z,8.28
2018-03-27T13:38:55.398Z,8.26
2018-03-27T13:41:23.168Z,8.24
2018-03-27T13:43:50.730Z,8.28
2018-03-27T13:46:18.286Z,8.31
2018-03-27T13:48:46.123Z,8.32
2018-03-27T13:51:13.698Z,8.31
2018-03-27T13:53:41.258Z,8.19
2018-03-27T13:56:08.851Z,8.09
2018-03-27T13:58:36.410Z,8.04
2018-03-27T14:01:04.281Z,8.00
2018-03-27T14:03:31.838Z,7.98
2018-03-27T14:05:59.748Z,7.89
2018-03-27T14:08:27.315Z,7.79
2018-03-27T14:10:55.087Z,7.79
2018-03-27T14:13:22.650Z,7.77
2018-03-27T14:15:50.421Z,7.81
2018-03-27T14:18:19.144Z,7.83
2018-03-27T14:20:46.960Z,7.85
2018-03-27T14:23:14.589Z,7.82
2018-03-27T14:25:42.282Z,7.91
2018-03-27T14:28:09.842Z,7.92
2018-03-27T14:30:37.635Z,7.93
2018-03-27T14:33:05.451Z,7.98
2018-03-27T14:35:33.294Z,7.97
2018-03-27T14:38:01.088Z,7.92
2018-03-27T14:40:28.914Z,7.84
2018-03-27T14:42:56.478Z,7.75
2018-03-27T14:45:24.061Z,7.79
2018-03-27T14:47:51.631Z,7.87
2018-03-27T14:50:19.378Z,7.92
2018-03-27T14:52:47.297Z,7.90
2018-03-27T14:55:15.005Z,7.98
2018-03-27T14:57:42.574Z,7.94
2018-03-27T15:00:10.150Z,8.08
2018-03-27T15:02:37.730Z,8.06
2018-03-27T15:05:05.310Z,7.93
2018-03-27T15:07:32.881Z,7.91
2018-03-27T15:10:00.502Z,7.91
2018-03-27T15:12:28.069Z,7.87
2018-03-27T15:14:55.636Z,7.95
2018-03-27T15:17:23.207Z,7.96
2018-03-27T15:19:51.001Z,7.96
2018-03-27T15:22:18.702Z,7.97
2018-03-27T15:24:46.279Z,7.98
2018-03-27T15:27:14.128Z,7.90
2018-03-27T15:29:41.695Z,7.92
2018-03-27T15:32:09.482Z,7.93
2018-03-27T15:34:37.041Z,7.83
2018-03-27T15:37:04.622Z,7.89
2018-03-27T15:39:32.214Z,7.91
2018-03-27T15:41:59.774Z,7.93
2018-03-27T15:44:27.571Z,7.93
2018-03-27T15:46:55.134Z,7.87
2018-03-27T15:49:22.910Z,7.85
2018-03-27T15:51:50.479Z,7.87
2018-03-27T15:54:18.126Z,7.89
2018-03-27T15:56:45.709Z,7.92
2018-03-27T15:59:13.285Z,7.89
2018-03-27T16:01:40.901Z,7.85
2018-03-27T16:04:08.467Z,7.86
2018-03-27T16:06:36.033Z,7.85
2018-03-27T16:09:03.706Z,7.83
2018-03-27T16:11:31.278Z,7.80
2018-03-27T16:13:59.102Z,7.71
2018-03-27T16:16:26.905Z,7.66
2018-03-27T16:18:54.723Z,7.65
2018-03-27T16:21:22.433Z,7.71
2018-03-27T16:23:50.007Z,7.70
2018-03-27T16:26:17.737Z,7.62
2018-03-27T16:28:45.463Z,7.64
2018-03-27T16:31:13.066Z,7.63
2018-03-27T16:33:40.665Z,7.58
2018-03-27T16:36:08.293Z,7.58
2018-03-27T16:38:36.021Z,7.52
2018-03-27T16:41:03.593Z,7.54
2018-03-27T16:43:31.182Z,7.49
2018-03-27T16:45:58.903Z,7.46
2018-03-27T16:48:26.619Z,7.45
2018-03-27T16:50:54.335Z,7.41
2018-03-27T16:53:21.950Z,7.32
2018-03-27T16:55:49.694Z,7.26
2018-03-27T16:58:17.302Z,7.24
2018-03-27T17:00:44.930Z,7.29
2018-03-27T17:03:12.497Z,7.32
2018-03-27T17:05:40.078Z,7.40
2018-03-27T17:08:07.883Z,7.42
2018-03-27T17:10:35.586Z,7.43
2018-03-27T17:13:03.150Z,7.43
2018-03-27T17:15:30.829Z,7.36
2018-03-27T17:17:58.655Z,7.34
2018-03-27T17:20:26.222Z,7.33
2018-03-27T17:22:53.839Z,7.36
2018-03-27T17:25:21.610Z,7.29
2018-03-27T17:27:49.188Z,7.29
2018-03-27T17:30:16.925Z,7.26
2018-03-27T17:32:44.638Z,7.28
2018-03-27T17:35:12.482Z,7.26
2018-03-27T17:37:40.052Z,7.22
2018-03-27T17:40:07.610Z,7.21
2018-03-27T17:42:35.192Z,7.20
2018-03-27T17:45:02.753Z,7.16
2018-03-27T17:47:30.572Z,7.10
2018-03-27T17:49:58.270Z,7.06
2018-03-27T17:52:26.107Z,7.06
2018-03-27T17:54:53.674Z,7.13
2018-03-27T17:57:21.238Z,7.12
2018-03-27T17:59:49.061Z,7.16
2018-03-27T18:02:16.671Z,7.20
2018-03-27T18:04:44.238Z,7.18
2018-03-27T18:07:11.859Z,7.20
2018-03-27T18:09:39.503Z,7.20
2018-03-27T18:12:07.251Z,7.21
2018-03-27T18:14:35.070Z,7.19
2018-03-27T18:17:02.888Z,7.24
2018-03-27T18:19:30.497Z,7.25
2018-03-27T18:21:58.078Z,7.22
2018-03-27T18:24:25.810Z,7.18
2018-03-27T18:26:53.453Z,7.17
2018-03-27T18:29:21.151Z,7.14
2018-03-27T18:31:48.718Z,7.13
2018-03-27T18:34:16.294Z,7.08
2018-03-27T18:36:43.862Z,7.00
2018-03-27T18:39:11.458Z,6.96
2018-03-27T18:41:39.061Z,6.91
2018-03-27T18:44:06.771Z,6.79
2018-03-27T18:46:34.342Z,6.71
2018-03-27T18:49:01.907Z,6.65
2018-03-27T18:51:29.484Z,6.57
2018-03-27T18:53:57.230Z,6.56
2018-03-27T18:56:24.820Z,6.60
2018-03-27T18:58:52.400Z,6.59
2018-03-27T19:01:20.097Z,6.57
2018-03-27T19:03:47.666Z,6.56
2018-03-27T19:06:15.238Z,6.54
2018-03-27T19:08:42.817Z,6.53
2018-03-27T19:11:10.586Z,6.50
2018-03-27T19:13:38.170Z,6.47
2018-03-27T19:16:06.018Z,6.46
2018-03-27T19:18:33.642Z,6.49
2018-03-27T19:21:01.453Z,6.44
2018-03-27T19:23:29.021Z,6.38
2018-03-27T19:25:56.792Z,6.32
2018-03-27T19:28:24.375Z,6.34
2018-03-27T19:30:52.225Z,6.31
2018-03-27T19:33:19.791Z,6.29
2018-03-27T19:35:47.662Z,6.29
2018-03-27T19:38:15.225Z,6.33
2018-03-27T19:40:42.964Z,6.33
2018-03-27T19:43:10.601Z,6.33
2018-03-27T19:45:38.167Z,6.31
2018-03-27T19:48:05.770Z,6.34
2018-03-27T19:50:33.569Z,6.29
2018-03-27T19:53:01.394Z,6.28
2018-03-27T19:55:29.188Z,6.33
2018-03-27T19:57:56.903Z,6.29
2018-03-27T20:00:24.482Z,6.32
2018-03-27T20:02:52.265Z,6.29
2018-03-27T20:05:20.573Z,6.35
2018-03-27T20:07:48.501Z,6.36
2018-03-27T20:10:16.319Z,6.35
2018-03-27T20:12:44.136Z,6.34
2018-03-27T20:15:11.956Z,6.25
2018-03-27T20:17:39.778Z,6.17
2018-03-27T20:20:07.342Z,6.12
2018-03-27T20:22:35.058Z,6.05
2018-03-27T20:25:02.622Z,6.03
2018-03-27T20:27:30.238Z,6.00
2018-03-27T20:29:57.811Z,5.94
2018-03-27T20:32:25.392Z,5.87
2018-03-27T20:34:53.722Z,5.77
2018-03-27T20:37:21.725Z,5.71
2018-03-27T20:39:49.816Z,5.63
2018-03-27T20:42:17.410Z,5.55
2018-03-27T20:44:45.046Z,5.52
2018-03-27T20:47:12.754Z,5.47
2018-03-27T20:49:40.474Z,5.38
2018-03-27T20:52:08.063Z,5.43
2018-03-27T20:54:35.635Z,5.38
2018-03-27T20:57:03.226Z,5.37
2018-03-27T20:59:30.961Z,5.27
2018-03-27T21:01:58.720Z,5.26
2018-03-27T21:04:26.519Z,5.27
2018-03-27T21:06:54.085Z,5.24
2018-03-27T21:09:21.663Z,5.15
2018-03-27T21:11:49.233Z,5.10
2018-03-27T21:14:16.958Z,5.08
2018-03-27T21:16:44.674Z,5.04
2018-03-27T21:19:12.295Z,5.00
2018-03-27T21:21:39.877Z,4.95
2018-03-27T21:24:07.483Z,4.94
2018-03-27T21:26:35.045Z,4.86
2018-03-27T21:29:02.636Z,4.80
2018-03-27T21:31:30.211Z,4.79
2018-03-27T21:33:57.824Z,4.79
2018-03-27T21:36:25.390Z,4.76
2018-03-27T21:38:52.953Z,4.75
2018-03-27T21:41:20.519Z,4.75
2018-03-27T21:43:48.090Z,4.67
2018-03-27T21:46:15.673Z,4.62
2018-03-27T21:48:43.298Z,4.55
2018-03-27T21:51:10.866Z,4.53
2018-03-27T21:53:38.430Z,4.52
2018-03-27T21:56:06.006Z,4.48
2018-03-27T21:58:33.573Z,4.47
2018-03-27T22:01:01.148Z,4.44
2018-03-27T22:03:41.536Z,4.46
2018-03-27T22:06:09.300Z,4.48
2018-03-27T22:08:36.866Z,4.49
2018-03-27T22:11:04.454Z,4.46
2018-03-27T22:13:32.032Z,4.46
2018-03-27T22:15:59.780Z,4.43
2018-03-27T22:18:27.346Z,4.36
2018-03-27T22:20:54.945Z,4.36
2018-03-27T22:23:22.554Z,4.36
2018-03-27T22:25:50.119Z,4.34
2018-03-27T22:28:17.759Z,4.34
2018-03-27T22:30:45.341Z,4.27
2018-03-27T22:33:12.996Z,4.28
2018-03-27T22:35:40.558Z,4.19
2018-03-27T22:38:08.113Z,4.15
2018-03-27T22:40:35.736Z,4.10
2018-03-27T22:43:03.443Z,4.05
2018-03-27T22:45:31.013Z,4.05
2018-03-27T22:47:58.689Z,4.03
2018-03-27T22:50:26.392Z,4.01
2018-03-27T22:52:53.953Z,3.97
2018-03-27T22:55:21.523Z,3.97
2018-03-27T22:57:49.138Z,3.98
2018-03-27T23:00:21.699Z,3.95
2018-03-27T23:02:49.398Z,3.80
2018-03-27T23:05:16.970Z,3.66
2018-03-27T23:07:44.526Z,3.58
2018-03-27T23:10:12.098Z,3.49
2018-03-27T23:12:39.656Z,3.45
2018-03-27T23:15:07.525Z,3.43
2018-03-27T23:17:35.089Z,3.35
2018-03-27T23:20:02.660Z,3.36
2018-03-27T23:22:33.058Z,3.32
2018-03-27T23:25:00.776Z,3.28
2018-03-27T23:27:28.524Z,3.21
2018-03-27T23:29:56.243Z,3.17
2018-03-27T23:32:24.061Z,3.13
2018-03-27T23:34:51.662Z,3.15
2018-03-27T23:37:19.222Z,3.17
2018-03-27T23:39:47.014Z,3.18
2018-03-27T23:42:14.833Z,3.18
2018-03-27T23:44:42.405Z,3.21
2018-03-27T23:47:10.173Z,3.17
2018-03-27T23:49:37.782Z,3.16
2018-03-27T23:52:05.458Z,3.24
2018-03-27T23:54:33.224Z,3.25
2018-03-27T23:57:00.790Z,3.21
2018-03-27T23:59:28.347Z,3.20
